createdAt,value
2018-03-24T00:01:47.667Z,21.65
2018-03-24T00:04:14.325Z,20.40
2018-03-24T00:06:40.910Z,23.67
2018-03-24T00:09:07.087Z,24.58
2018-03-24T00:11:33.311Z,26.45
2018-03-24T00:13:59.568Z,22.67
2018-03-24T00:16:25.773Z,22.08
2018-03-24T00:18:52.005Z,20.88
2018-03-24T00:21:18.597Z,22.55
2018-03-24T00:23:44.794Z,22.37
2018-03-24T00:26:11.022Z,20.77
2018-03-24T00:28:37.279Z,22.42
2018-03-24T00:31:03.498Z,21.27
2018-03-24T00:33:29.723Z,21.87
2018-03-24T00:35:55.958Z,21.30
2018-03-24T00:38:22.159Z,20.48
2018-03-24T00:40:48.362Z,19.73
2018-03-24T00:43:14.948Z,20.83
2018-03-24T00:45:41.176Z,21.00
2018-03-24T00:48:07.423Z,20.85
2018-03-24T00:50:33.636Z,20.60
2018-03-24T00:52:59.876Z,21.95
2018-03-24T00:55:26.154Z,21.35
2018-03-24T00:57:52.371Z,22.70
2018-03-24T01:00:18.981Z,20.80
2018-03-24T01:02:45.236Z,19.75
2018-03-24T01:05:11.832Z,22.25
2018-03-24T01:07:39.032Z,21.33
2018-03-24T01:10:05.535Z,22.75
2018-03-24T01:12:31.744Z,20.98
2018-03-24T01:14:57.936Z,21.90
2018-03-24T01:17:24.168Z,22.00
2018-03-24T01:19:50.395Z,22.15
2018-03-24T01:22:16.590Z,23.45
2018-03-24T01:24:42.834Z,21.05
2018-03-24T01:27:09.067Z,20.98
2018-03-24T01:29:35.273Z,21.77
2018-03-24T01:32:01.878Z,22.17
2018-03-24T01:34:28.108Z,22.35
2018-03-24T01:36:54.340Z,20.90
2018-03-24T01:39:20.527Z,21.90
2018-03-24T01:41:46.751Z,21.33
2018-03-24T01:44:12.947Z,21.50
2018-03-24T01:46:39.511Z,22.52
2018-03-24T01:49:05.725Z,23.17
2018-03-24T01:51:31.973Z,21.48
2018-03-24T01:53:58.153Z,23.15
2018-03-24T01:56:24.368Z,21.65
2018-03-24T01:58:50.633Z,21.37
2018-03-24T02:01:16.867Z,23.00
2018-03-24T02:03:43.093Z,21.92
2018-03-24T02:06:09.320Z,21.67
2018-03-24T02:08:35.515Z,24.87
2018-03-24T02:11:02.685Z,22.90
2018-03-24T02:13:29.835Z,22.55
2018-03-24T02:15:56.090Z,22.30
2018-03-24T02:18:22.326Z,23.17
2018-03-24T02:20:48.587Z,21.92
2018-03-24T02:23:14.800Z,22.40
2018-03-24T02:25:41.100Z,22.62
2018-03-24T02:28:08.281Z,22.50
2018-03-24T02:30:34.522Z,22.90
2018-03-24T02:33:00.757Z,24.25
2018-03-24T02:35:26.959Z,22.87
2018-03-24T02:37:53.173Z,23.52
2018-03-24T02:40:19.429Z,22.30
2018-03-24T02:42:45.640Z,23.40
2018-03-24T02:45:11.905Z,22.48
2018-03-24T02:47:38.118Z,23.12
2018-03-24T02:50:04.358Z,24.92
2018-03-24T02:52:30.589Z,24.15
2018-03-24T02:54:56.811Z,23.42
2018-03-24T02:57:23.064Z,24.70
2018-03-24T02:59:50.626Z,25.70
2018-03-24T03:02:17.296Z,23.17
2018-03-24T03:04:43.503Z,24.75
2018-03-24T03:07:09.693Z,26.73
2018-03-24T03:09:35.929Z,24.70
2018-03-24T03:12:02.552Z,25.40
2018-03-24T03:14:28.751Z,25.75
2018-03-24T03:16:54.991Z,25.62
2018-03-24T03:19:21.233Z,27.48
2018-03-24T03:21:51.507Z,27.17
2018-03-24T03:24:17.731Z,24.42
2018-03-24T03:26:43.956Z,23.80
2018-03-24T03:29:10.171Z,27.40
2018-03-24T03:31:36.436Z,26.90
2018-03-24T03:34:02.726Z,27.80
2018-03-24T03:36:28.937Z,27.27
2018-03-24T03:38:55.171Z,27.67
2018-03-24T03:41:21.374Z,28.38
2018-03-24T03:43:47.588Z,26.12
2018-03-24T03:46:14.147Z,26.90
2018-03-24T03:48:40.365Z,27.75
2018-03-24T03:51:06.568Z,27.73
2018-03-24T03:53:32.804Z,26.20
2018-03-24T03:55:59.028Z,28.05
2018-03-24T03:58:25.236Z,27.65
2018-03-24T04:00:51.485Z,30.00
2018-03-24T04:03:17.718Z,27.42
2018-03-24T04:05:43.900Z,27.87
2018-03-24T04:08:10.115Z,27.95
2018-03-24T04:10:36.335Z,29.55
2018-03-24T04:13:02.562Z,31.90
2018-03-24T04:15:28.813Z,28.65
2018-03-24T04:17:55.009Z,29.67
2018-03-24T04:20:21.213Z,28.40
2018-03-24T04:22:47.441Z,29.42
2018-03-24T04:25:13.663Z,28.80
2018-03-24T04:27:39.857Z,30.42
2018-03-24T04:30:06.460Z,27.30
2018-03-24T04:32:32.730Z,28.83
2018-03-24T04:34:58.940Z,27.90
2018-03-24T04:37:25.901Z,29.98
2018-03-24T04:39:52.116Z,27.52
2018-03-24T04:42:18.707Z,30.12
2018-03-24T04:44:44.943Z,27.13
2018-03-24T04:47:11.163Z,27.42
2018-03-24T04:49:37.385Z,31.37
2018-03-24T04:52:03.980Z,25.23
2018-03-24T04:54:30.593Z,27.85
2018-03-24T04:56:56.806Z,26.90
2018-03-24T04:59:23.015Z,24.65
2018-03-24T05:01:49.233Z,24.87
2018-03-24T05:04:16.208Z,24.02
2018-03-24T05:06:42.451Z,26.30
2018-03-24T05:09:08.685Z,28.38
2018-03-24T05:11:34.941Z,24.67
2018-03-24T05:14:01.157Z,31.37
2018-03-24T05:16:27.740Z,25.02
2018-03-24T05:18:53.982Z,27.37
2018-03-24T05:21:20.261Z,28.08
2018-03-24T05:23:46.472Z,26.27
2018-03-24T05:26:12.738Z,28.33
2018-03-24T05:28:38.922Z,27.70
2018-03-24T05:31:05.130Z,25.17
2018-03-24T05:33:31.344Z,27.23
2018-03-24T05:35:57.534Z,25.90
2018-03-24T05:38:23.761Z,26.73
2018-03-24T05:40:49.990Z,30.67
2018-03-24T05:43:16.205Z,26.08
2018-03-24T05:45:42.459Z,26.58
2018-03-24T05:48:08.675Z,27.75
2018-03-24T05:50:34.901Z,27.58
2018-03-24T05:53:01.145Z,26.33
2018-03-24T05:55:27.355Z,26.87
2018-03-24T05:57:53.551Z,25.20
2018-03-24T06:00:20.193Z,25.23
2018-03-24T06:02:46.789Z,26.35
2018-03-24T06:05:13.000Z,28.00
2018-03-24T06:07:39.221Z,30.20
2018-03-24T06:10:05.434Z,28.45
2018-03-24T06:12:31.644Z,28.83
2018-03-24T06:14:57.909Z,26.08
2018-03-24T06:17:24.215Z,28.67
2018-03-24T06:19:50.438Z,27.40
2018-03-24T06:22:16.678Z,28.38
2018-03-24T06:24:42.907Z,27.52
2018-03-24T06:27:09.170Z,27.60
2018-03-24T06:29:35.382Z,26.75
2018-03-24T06:32:01.696Z,27.92
2018-03-24T06:34:28.012Z,28.95
2018-03-24T06:36:55.645Z,28.62
2018-03-24T06:39:21.945Z,27.23
2018-03-24T06:41:48.188Z,26.87
2018-03-24T06:44:14.456Z,27.70
2018-03-24T06:46:40.642Z,28.38
2018-03-24T06:49:06.854Z,29.37
2018-03-24T06:51:33.105Z,28.05
2018-03-24T06:53:59.304Z,28.98
2018-03-24T06:56:25.509Z,28.25
2018-03-24T06:58:51.764Z,29.10
2018-03-24T07:01:18.874Z,28.95
2018-03-24T07:03:45.079Z,26.08
2018-03-24T07:06:11.323Z,28.35
2018-03-24T07:08:37.529Z,25.73
2018-03-24T07:11:03.807Z,29.05
2018-03-24T07:13:30.021Z,28.23
2018-03-24T07:15:56.262Z,29.95
2018-03-24T07:18:22.480Z,27.33
2018-03-24T07:20:48.688Z,29.27
2018-03-24T07:23:15.538Z,27.70
2018-03-24T07:25:41.761Z,27.02
2018-03-24T07:28:07.987Z,26.85
2018-03-24T07:30:34.201Z,29.55
2018-03-24T07:33:00.477Z,28.90
2018-03-24T07:35:26.855Z,28.20
2018-03-24T07:37:53.072Z,29.65
2018-03-24T07:40:19.280Z,29.20
2018-03-24T07:42:45.505Z,29.55
2018-03-24T07:45:11.780Z,27.65
2018-03-24T07:47:38.083Z,28.08
2018-03-24T07:50:04.657Z,30.12
2018-03-24T07:52:30.924Z,30.90
2018-03-24T07:54:57.132Z,28.92
2018-03-24T07:57:23.359Z,30.42
2018-03-24T07:59:50.081Z,29.10
2018-03-24T08:02:16.655Z,29.10
2018-03-24T08:04:42.850Z,26.30
2018-03-24T08:07:09.090Z,29.27
2018-03-24T08:09:35.315Z,28.87
2018-03-24T08:12:01.547Z,27.95
2018-03-24T08:14:27.785Z,28.40
2018-03-24T08:16:54.053Z,31.00
2018-03-24T08:19:20.234Z,29.00
2018-03-24T08:21:47.514Z,27.60
2018-03-24T08:24:13.771Z,29.15
2018-03-24T08:26:39.995Z,29.83
2018-03-24T08:29:06.241Z,26.08
2018-03-24T08:31:32.862Z,26.90
2018-03-24T08:33:59.062Z,29.30
2018-03-24T08:36:25.741Z,29.05
2018-03-24T08:38:52.332Z,27.77
2018-03-24T08:41:18.595Z,27.33
2018-03-24T08:43:45.250Z,25.85
2018-03-24T08:46:11.874Z,27.75
2018-03-24T08:48:38.090Z,27.27
2018-03-24T08:51:04.366Z,26.65
2018-03-24T08:53:30.588Z,25.17
2018-03-24T08:55:56.790Z,28.67
2018-03-24T08:58:23.447Z,26.70
2018-03-24T09:00:50.008Z,30.20
2018-03-24T09:03:16.311Z,25.98
2018-03-24T09:05:42.905Z,29.77
2018-03-24T09:08:09.141Z,25.62
2018-03-24T09:10:35.376Z,26.62
2018-03-24T09:13:01.625Z,27.73
2018-03-24T09:15:28.217Z,27.67
2018-03-24T09:17:54.466Z,28.00
2018-03-24T09:20:20.716Z,27.15
2018-03-24T09:22:47.347Z,26.65
2018-03-24T09:25:13.951Z,23.62
2018-03-24T09:27:40.458Z,26.33
2018-03-24T09:30:06.653Z,26.20
2018-03-24T09:32:33.249Z,24.30
2018-03-24T09:34:59.591Z,24.60
2018-03-24T09:37:25.780Z,21.87
2018-03-24T09:39:51.964Z,21.10
2018-03-24T09:42:18.236Z,19.42
2018-03-24T09:44:44.496Z,17.15
2018-03-24T09:47:10.711Z,12.40
2018-03-24T09:49:37.303Z,13.25
2018-03-24T09:52:03.547Z,11.00
2018-03-24T09:54:29.806Z,10.93
2018-03-24T09:56:56.089Z,10.75
2018-03-24T09:59:22.354Z,10.15
2018-03-24T10:01:48.605Z,9.65
2018-03-24T10:04:14.854Z,9.52
2018-03-24T10:06:41.096Z,9.30
2018-03-24T10:09:07.722Z,10.13
2018-03-24T10:11:34.358Z,8.90
2018-03-24T10:14:00.975Z,9.15
2018-03-24T10:16:27.250Z,8.68
2018-03-24T10:18:53.513Z,8.25
2018-03-24T10:21:35.755Z,9.98
2018-03-24T10:24:07.003Z,8.77
2018-03-24T10:26:33.664Z,9.70
2018-03-24T10:28:59.913Z,8.83
2018-03-24T10:31:26.148Z,9.83
2018-03-24T10:33:58.354Z,8.60
2018-03-24T10:36:24.615Z,8.47
2018-03-24T10:38:50.837Z,7.60
2018-03-24T10:41:17.086Z,7.60
2018-03-24T10:43:43.348Z,8.67
2018-03-24T10:46:09.621Z,7.90
2018-03-24T10:48:36.241Z,7.83
2018-03-24T10:51:02.799Z,7.93
2018-03-24T10:53:29.052Z,7.47
2018-03-24T10:55:55.301Z,9.63
2018-03-24T10:58:21.588Z,9.33
2018-03-24T11:00:54.302Z,7.80
2018-03-24T11:03:20.520Z,8.10
2018-03-24T11:05:46.800Z,8.80
2018-03-24T11:08:13.060Z,8.67
2018-03-24T11:10:39.308Z,8.67
2018-03-24T11:13:05.586Z,8.53
2018-03-24T11:15:31.841Z,8.20
2018-03-24T11:17:58.078Z,8.87
2018-03-24T11:20:24.377Z,9.20
2018-03-24T11:22:57.581Z,9.03
2018-03-24T11:25:24.700Z,9.77
2018-03-24T11:27:50.973Z,9.03
2018-03-24T11:30:17.223Z,9.37
2018-03-24T11:32:43.477Z,8.10
2018-03-24T11:35:09.799Z,8.13
2018-03-24T11:37:36.024Z,9.00
2018-03-24T11:40:02.606Z,8.70
2018-03-24T11:42:28.910Z,8.90
2018-03-24T11:44:55.172Z,8.97
2018-03-24T11:47:21.376Z,9.20
2018-03-24T11:49:47.622Z,9.40
2018-03-24T11:52:13.852Z,10.50
2018-03-24T11:54:42.772Z,10.47
2018-03-24T11:57:09.047Z,10.03
2018-03-24T11:59:35.256Z,10.17
2018-03-24T12:02:01.510Z,9.43
2018-03-24T12:04:27.789Z,9.67
2018-03-24T12:06:54.022Z,9.00
2018-03-24T12:09:21.677Z,9.17
2018-03-24T12:11:47.915Z,9.17
2018-03-24T12:14:15.166Z,10.20
2018-03-24T12:16:41.441Z,10.43
2018-03-24T12:19:07.766Z,9.97
2018-03-24T12:21:34.083Z,11.00
2018-03-24T12:24:00.324Z,10.13
2018-03-24T12:26:26.599Z,11.43
2018-03-24T12:28:52.840Z,9.33
2018-03-24T12:31:19.112Z,11.17
2018-03-24T12:33:46.522Z,11.17
2018-03-24T12:36:12.770Z,10.77
2018-03-24T12:38:39.909Z,11.40
2018-03-24T12:41:06.501Z,9.37
2018-03-24T12:43:32.746Z,10.53
2018-03-24T12:45:58.995Z,11.60
2018-03-24T12:48:25.241Z,11.97
2018-03-24T12:50:51.505Z,10.30
2018-03-24T12:53:18.188Z,11.53
2018-03-24T12:55:44.479Z,13.40
2018-03-24T12:58:11.170Z,12.23
2018-03-24T13:00:37.448Z,11.63
2018-03-24T13:03:03.690Z,11.80
2018-03-24T13:05:30.892Z,12.53
2018-03-24T13:07:57.936Z,10.73
2018-03-24T13:10:24.196Z,11.37
2018-03-24T13:12:50.456Z,11.23
2018-03-24T13:15:16.734Z,12.47
2018-03-24T13:17:43.021Z,12.27
2018-03-24T13:20:09.620Z,11.37
2018-03-24T13:22:36.216Z,12.70
2018-03-24T13:25:02.494Z,12.67
2018-03-24T13:27:28.769Z,11.80
2018-03-24T13:29:54.983Z,12.77
2018-03-24T13:32:21.203Z,12.07
2018-03-24T13:34:47.477Z,12.27
2018-03-24T13:37:13.733Z,11.77
2018-03-24T13:39:40.061Z,11.63
2018-03-24T13:42:06.686Z,12.03
2018-03-24T13:44:32.970Z,12.43
2018-03-24T13:46:59.266Z,10.93
2018-03-24T13:49:25.487Z,11.43
2018-03-24T13:51:51.793Z,12.20
2018-03-24T13:54:18.061Z,13.13
2018-03-24T13:56:44.385Z,11.90
2018-03-24T13:59:10.645Z,13.20
2018-03-24T14:01:36.897Z,11.90
2018-03-24T14:04:03.183Z,13.20
2018-03-24T14:06:29.415Z,12.70
2018-03-24T14:08:55.995Z,12.40
2018-03-24T14:11:22.220Z,11.73
2018-03-24T14:13:48.502Z,10.70
2018-03-24T14:16:14.787Z,11.47
2018-03-24T14:18:41.023Z,11.17
2018-03-24T14:21:07.271Z,12.70
2018-03-24T14:23:33.891Z,13.17
2018-03-24T14:26:00.195Z,11.70
2018-03-24T14:28:26.451Z,12.27
2018-03-24T14:30:52.720Z,12.00
2018-03-24T14:33:18.950Z,11.83
2018-03-24T14:35:45.206Z,13.30
2018-03-24T14:38:11.855Z,10.57
2018-03-24T14:40:38.126Z,11.90
2018-03-24T14:43:04.382Z,11.67
2018-03-24T14:45:30.680Z,11.00
2018-03-24T14:47:56.905Z,10.23
2018-03-24T14:50:23.169Z,11.50
2018-03-24T14:52:49.535Z,10.77
2018-03-24T14:55:15.732Z,11.70
2018-03-24T14:57:42.023Z,10.80
2018-03-24T15:00:08.714Z,10.80
2018-03-24T15:02:34.936Z,11.20
2018-03-24T15:05:01.207Z,10.80
2018-03-24T15:07:27.865Z,12.07
2018-03-24T15:09:54.096Z,10.87
2018-03-24T15:12:20.446Z,11.33
2018-03-24T15:14:46.640Z,9.70
2018-03-24T15:17:12.905Z,10.00
2018-03-24T15:19:39.134Z,10.73
2018-03-24T15:22:05.826Z,10.20
2018-03-24T15:24:32.051Z,9.00
2018-03-24T15:26:58.675Z,9.23
2018-03-24T15:42:47.985Z,10.50
2018-03-24T15:45:14.279Z,11.17
2018-03-24T15:47:40.593Z,10.53
2018-03-24T15:50:06.880Z,10.80
2018-03-24T15:52:33.154Z,10.37
2018-03-24T15:54:59.421Z,10.23
2018-03-24T15:57:25.983Z,10.30
2018-03-24T15:59:52.287Z,9.80
2018-03-24T16:02:18.534Z,9.70
2018-03-24T16:04:44.832Z,10.53
2018-03-24T16:07:11.117Z,11.10
2018-03-24T16:09:37.390Z,10.90
2018-03-24T16:12:03.746Z,9.80
2018-03-24T16:14:30.015Z,10.13
2018-03-24T16:16:56.301Z,9.20
2018-03-24T16:19:22.614Z,8.98
2018-03-24T16:21:49.008Z,10.13
2018-03-24T16:24:15.363Z,9.90
2018-03-24T16:26:41.681Z,8.57
2018-03-24T16:29:08.360Z,9.75
2018-03-24T16:31:34.665Z,9.95
2018-03-24T16:34:01.026Z,9.75
2018-03-24T16:36:27.331Z,10.02
2018-03-24T16:38:53.587Z,9.48
2018-03-24T16:41:19.942Z,10.52
2018-03-24T16:43:46.608Z,10.55
2018-03-24T16:46:13.244Z,10.57
2018-03-24T16:48:39.538Z,10.05
2018-03-24T16:51:05.804Z,9.80
2018-03-24T16:53:32.462Z,10.43
2018-03-24T16:55:58.997Z,12.15
2018-03-24T16:58:25.287Z,11.60
2018-03-24T17:00:51.513Z,12.35
2018-03-24T17:03:17.796Z,11.12
2018-03-24T17:05:44.011Z,12.85
2018-03-24T17:08:11.464Z,13.80
2018-03-24T17:10:38.596Z,12.77
2018-03-24T17:13:04.877Z,13.90
2018-03-24T17:15:31.130Z,14.50
2018-03-24T17:17:57.438Z,14.32
2018-03-24T17:20:23.687Z,14.70
2018-03-24T17:22:49.996Z,14.75
2018-03-24T17:25:16.570Z,15.30
2018-03-24T17:27:42.819Z,15.73
2018-03-24T17:30:11.068Z,14.38
2018-03-24T17:32:37.323Z,14.52
2018-03-24T17:35:03.940Z,16.17
2018-03-24T17:37:30.237Z,18.00
2018-03-24T17:39:56.511Z,15.82
2018-03-24T17:42:22.796Z,17.75
2018-03-24T17:44:49.048Z,14.90
2018-03-24T17:47:15.369Z,17.87
2018-03-24T17:49:41.638Z,18.35
2018-03-24T17:52:07.867Z,17.92
2018-03-24T17:54:34.526Z,15.40
2018-03-24T17:57:00.813Z,15.73
2018-03-24T17:59:27.098Z,19.12
2018-03-24T18:01:53.384Z,17.52
2018-03-24T18:04:19.658Z,18.48
2018-03-24T18:06:45.899Z,18.37
2018-03-24T18:09:12.192Z,18.20
2018-03-24T18:11:38.442Z,19.62
2018-03-24T18:14:04.711Z,19.30
2018-03-24T18:16:30.978Z,19.85
2018-03-24T18:18:57.239Z,19.90
2018-03-24T18:21:23.523Z,18.27
2018-03-24T18:23:50.223Z,19.23
2018-03-24T18:26:16.543Z,16.42
2018-03-24T18:28:42.832Z,18.75
2018-03-24T18:31:09.167Z,18.60
2018-03-24T18:33:35.447Z,18.35
2018-03-24T18:36:01.758Z,17.15
2018-03-24T18:38:28.322Z,20.23
2018-03-24T18:40:54.544Z,19.37
2018-03-24T18:43:20.816Z,18.05
2018-03-24T18:45:47.049Z,18.37
2018-03-24T18:48:13.358Z,19.15
2018-03-24T18:50:39.990Z,18.90
2018-03-24T18:53:06.238Z,19.00
2018-03-24T18:55:32.506Z,18.55
2018-03-24T18:57:58.853Z,18.37
2018-03-24T19:00:26.208Z,18.70
2018-03-24T19:02:52.471Z,18.65
2018-03-24T19:05:19.082Z,19.00
2018-03-24T19:07:45.348Z,18.80
2018-03-24T19:10:11.654Z,20.08
2018-03-24T19:12:37.943Z,20.05
2018-03-24T19:15:04.222Z,18.65
2018-03-24T19:17:30.836Z,20.60
2018-03-24T19:19:57.152Z,19.77
2018-03-24T19:22:23.372Z,16.70
2018-03-24T19:24:49.657Z,18.70
2018-03-24T19:27:15.891Z,19.40
2018-03-24T19:29:42.164Z,20.33
2018-03-24T19:32:08.438Z,20.77
2018-03-24T19:34:35.076Z,20.35
2018-03-24T19:37:01.776Z,19.83
2018-03-24T19:39:28.040Z,19.77
2018-03-24T19:41:54.270Z,20.05
2018-03-24T19:44:21.223Z,19.45
2018-03-24T19:46:47.477Z,20.15
2018-03-24T19:49:13.733Z,20.55
2018-03-24T19:51:40.015Z,19.95
2018-03-24T19:54:06.306Z,19.87
2018-03-24T19:56:32.592Z,20.15
2018-03-24T19:59:00.764Z,21.65
2018-03-24T20:01:27.082Z,20.70
2018-03-24T20:03:53.329Z,20.73
2018-03-24T20:06:20.557Z,20.95
2018-03-24T20:08:46.863Z,20.77
2018-03-24T20:11:13.127Z,22.67
2018-03-24T20:13:39.663Z,21.90
2018-03-24T20:16:05.889Z,22.83
2018-03-24T20:18:32.160Z,21.95
2018-03-24T20:20:58.443Z,22.20
2018-03-24T20:23:24.677Z,22.15
2018-03-24T20:25:50.957Z,20.60
2018-03-24T20:28:17.272Z,22.95
2018-03-24T20:30:43.541Z,21.83
2018-03-24T20:33:09.776Z,23.05
2018-03-24T20:35:37.746Z,22.58
2018-03-24T20:38:03.975Z,22.08
2018-03-24T20:40:30.236Z,21.27
2018-03-24T20:42:56.524Z,20.08
2018-03-24T20:45:22.764Z,21.58
2018-03-24T20:47:49.060Z,22.45
2018-03-24T20:50:15.717Z,22.95
2018-03-24T20:52:42.000Z,20.58
2018-03-24T20:55:08.337Z,22.45
2018-03-24T20:57:34.605Z,22.37
2018-03-24T21:00:01.272Z,24.17
2018-03-24T21:02:27.625Z,23.08
2018-03-24T21:04:53.916Z,21.77
2018-03-24T21:07:20.211Z,21.95
2018-03-24T21:09:46.494Z,21.30
2018-03-24T21:12:12.815Z,23.65
2018-03-24T21:14:39.123Z,22.75
2018-03-24T21:17:05.366Z,22.92
2018-03-24T21:19:31.634Z,22.08
2018-03-24T21:21:57.898Z,21.87
2018-03-24T21:24:24.591Z,23.30
2018-03-24T21:26:50.845Z,20.70
2018-03-24T21:29:17.171Z,23.80
2018-03-24T21:31:43.441Z,20.75
2018-03-24T21:34:09.713Z,22.48
2018-03-24T21:36:35.980Z,22.70
2018-03-24T21:39:02.313Z,22.70
2018-03-24T21:41:28.963Z,22.10
2018-03-24T21:43:55.234Z,21.95
2018-03-24T21:46:21.464Z,23.12
2018-03-24T21:48:47.765Z,22.10
2018-03-24T21:51:14.013Z,21.75
2018-03-24T21:53:40.323Z,21.60
2018-03-24T21:56:06.614Z,21.23
2018-03-24T21:58:33.132Z,22.92
2018-03-24T22:01:01.167Z,21.48
2018-03-24T22:03:27.466Z,23.35
2018-03-24T22:05:54.136Z,21.23
2018-03-24T22:08:20.369Z,22.37
2018-03-24T22:10:46.586Z,23.00
2018-03-24T22:13:12.858Z,21.95
2018-03-24T22:15:40.093Z,22.33
2018-03-24T22:18:06.369Z,22.25
2018-03-24T22:20:32.643Z,21.30
2018-03-24T22:22:58.888Z,22.20
2018-03-24T22:25:26.152Z,20.58
2018-03-24T22:27:52.467Z,23.23
2018-03-24T22:30:18.767Z,23.17
2018-03-24T22:32:45.070Z,23.10
2018-03-24T22:35:11.723Z,21.00
2018-03-24T22:37:37.994Z,23.02
2018-03-24T22:40:04.268Z,22.30
2018-03-24T22:42:30.806Z,22.50
2018-03-24T22:44:57.829Z,21.25
2018-03-24T22:47:24.476Z,21.50
2018-03-24T22:49:51.120Z,21.17
2018-03-24T22:52:17.386Z,21.73
2018-03-24T22:54:43.689Z,22.45
2018-03-24T22:57:11.343Z,22.35
2018-03-24T22:59:37.954Z,22.10
2018-03-24T23:02:04.926Z,21.20
2018-03-24T23:04:31.606Z,21.90
2018-03-24T23:06:57.847Z,22.95
2018-03-24T23:09:24.092Z,22.85
2018-03-24T23:11:50.384Z,22.27
2018-03-24T23:14:17.541Z,22.13
2018-03-24T23:16:43.792Z,21.00
2018-03-24T23:19:11.092Z,21.75
2018-03-24T23:21:37.342Z,21.75
2018-03-24T23:24:03.621Z,24.20
2018-03-24T23:26:29.857Z,22.58
2018-03-24T23:28:56.508Z,22.25
2018-03-24T23:31:23.122Z,22.62
2018-03-24T23:33:49.320Z,23.00
2018-03-24T23:36:15.584Z,23.62
2018-03-24T23:38:42.165Z,25.10
2018-03-24T23:41:08.449Z,22.50
2018-03-24T23:43:35.041Z,23.35
2018-03-24T23:46:01.282Z,23.52
2018-03-24T23:48:27.543Z,23.65
2018-03-24T23:50:54.147Z,24.40
2018-03-24T23:53:20.403Z,23.73
2018-03-24T23:55:46.985Z,24.80
2018-03-24T23:58:13.245Z,26.35
